メインページ
METAR-TAF:

METAR-TAF

空港 :

小松飛行場

小松, 日本

緯度: 36-23N, 経度: 136-25E, 海抜: 6m

現時点の気象観測

当レポートは49分前の11:00(UTC)に作成
北東の風 8kt、から東/北東の間で変化する
気温 15°C
湿度 63%
気圧 1020 hPa
視程10km以上
高度3000ftの雲はほとんどない
高度18000ftの雲は散在している
千切れ雲あり

METAR: RJNK 201100Z 04008KT 350V060 9999 FEW030 SCT180 BKN/// 15/08 Q1020

時間: 20:49 (11:49 UTC)

予報

当レポートは44分前の11:05(UTC)に作成
予報は20日の 12時(UTC)から 21日の 18時(UTC)まで有効
北東の風 10kt
視程10km以上
高度3000ftの雲はほとんどない
20日の 14時(UTC)から 20日の 16時(UTC)まで徐々に
東/南東の風 4kt
20日の 22時(UTC)から 21日の 00時(UTC)まで徐々に
北西の風 6kt
21日の 03時(UTC)から 21日の 06時(UTC)まで徐々に
北東の風 6kt
21日の 15時(UTC)から 21日の 18時(UTC)まで徐々に
南/南東の風 4kt

TAF: RJNK 201105Z 2012/2118 04010KT 9999 FEW030 BECMG 2014/2016 12004KT BECMG 2022/2100 32006KT BECMG 2103/2106 04006KT BECMG 2115/2118 15004KT

4,000以上の空港の気象観測と天気予報(METAR報とTAF報)

利用可能な観測所は地図上に黄色い丸と赤い丸で示す。

丸の上にカーソルを重ねると観測所名を参照できる。

次にクリックすると気象観測と天気予報を参照できる。

マップの切り替え:黒色「×」印の緑ボタンをクリックして拡大、「-」印の緑ボタンをクリックして縮小、緑色の三角印をクリックして隣りの地図に切り替え


METAR-TAF: